ADDS METAR Data INFO
IDs: Format: Raw Decoded Include TAF

Data at: 1133 UTC 29 May 2017

KCRS 291053Z AUTO 26003KT 5SM BR OVC011 22/21 A2998 RMK AO2 SLP147 T02170206
KCRS 291032Z AUTO 22003KT 4SM BR BKN011 BKN030 21/21 A2998 RMK AO2 T02110206
KCRS 291014Z AUTO 20004KT 4SM BR SCT009 21/21 A2998 RMK AO2 T02110206
KCRS 290953Z AUTO 18005KT 4SM BR BKN009 22/21 A2997 RMK AO2 SLP145 T02170206
KCRS 290946Z AUTO 18005KT 4SM BR BKN009 22/21 A2997 RMK AO2 T02170206
KCRS 290910Z AUTO 36003KT 8SM SCT005 22/21 A2995 RMK AO2 T02170211
KCRS 290853Z AUTO 35004KT 7SM BKN005 22/21 A2995 RMK AO2 CIG 002V008 SLP136 60000 T02170211 56019
KCRS 290816Z AUTO 02007KT 6SM BR BKN003 22/21 A2993 RMK AO2 T02170206
KCRS 290807Z AUTO 02007KT 7SM SCT004 22/21 A2994 RMK AO2 T02170206
KCRS 290753Z AUTO 02005KT 10SM CLR 22/21 A2996 RMK AO2 SLP139 T02170206
KCRS 290653Z AUTO 01006KT 10SM FEW120 22/21 A3000 RMK AO2 RAB11E20 SLP155 P0000 T02170206
KCRS 290553Z AUTO 00000KT 10SM FEW049 OVC090 22/22 A3003 RMK AO2 RAB15E26 SLP164 P0000 60091 T02220217 10244 20222 403060222 50016
KCRS 290534Z AUTO 36004KT 7SM FEW008 SCT070 OVC090 22/21 A3002 RMK AO2 LTG DSNT E RAB15E26 P0000 T02220211
KCRS 290523Z AUTO 02005KT 8SM -RA FEW016 SCT070 OVC085 22/21 A3002 RMK AO2 LTG DSNT E RAB15 P0000 T02220211
KCRS 290453Z AUTO 00000KT 10SM VCTS FEW020 SCT046 BKN065 23/22 A3004 RMK AO2 LTG DSNT NE-SE RAE0357B17E52 TSE45E47 SLP166 P0062 T02280217
KCRS 290444Z AUTO 02003KT 8SM -TSRA FEW008 BKN046 OVC065 23/22 A3004 RMK AO2 LTG DSNT E AND SE RAE0357B17 P0062 T02280217
KCRS 290437Z AUTO 15003KT 3SM -TSRA BR FEW008 BKN018 OVC065 23/22 A3004 RMK AO2 LTG DSNT E AND SE RAE0357B17 P0062 T02280217
KCRS 290433Z AUTO 19003KT 1SM TSRA BR FEW008 BKN015 OVC045 23/22 A3004 RMK AO2 LTG DSNT E-S RAE0357B17 P0062 T02280217
KCRS 290423Z AUTO 22005KT 3/4SM +TSRA BR SCT008 BKN013 OVC021 23/22 A3005 RMK AO2 LTG DSNT E-S RAE0357B17 P0049 T02280217
KCRS 290419Z AUTO 29013KT 2 1/2SM +TSRA BR SCT008 BKN013 OVC037 23/22 A3007 RMK AO2 LTG DSNT ALQDS RAE0357B17 PRESRR P0020 T02280217
KCRS 290407Z AUTO 19009KT 10SM TS SCT012 BKN021 OVC037 23/22 A3003 RMK AO2 LTG DSNT ALQDS RAE0357 P0000 T02280217
KCRS 290353Z AUTO 21008KT 10SM -TSRA FEW014 BKN033 23/22 A3003 RMK AO2 LTG DSNT ALQDS TSB17 PRESRR SLP164 P0028 T02280217
KCRS 290343Z AUTO 13008KT 3SM -TSRA BR FEW014 BKN033 OVC055 23/22 A3000 RMK AO2 LTG DSNT ALQDS TSB17 P0028 T02280217
KCRS 290339Z AUTO 08009KT 1 1/2SM +TSRA BR FEW014 BKN029 OVC055 23/22 A2999 RMK AO2 LTG DSNT ALQDS TSB17 P0028 T02280217
KCRS 290331Z AUTO 15017KT 2 1/2SM +TSRA BR SCT015 BKN019 OVC050 23/22 A2998 RMK AO2 LTG DSNT ALQDS TSB17 P0018 T02330217
KCRS 290323Z AUTO 32009KT 10SM -TSRA FEW015 SCT036 OVC050 23/22 A3004 RMK AO2 LTG DSNT ALQDS TSB17 PRESRR P0002 T02330217
KCRS 290311Z AUTO 11008KT 8SM VCTS RA OVC050 23/22 A2999 RMK AO2 LTG DSNT ALQDS P0002 T02330217
KCRS 290253Z AUTO 10004KT 10SM -RA BKN050 23/22 A2998 RMK AO2 LTG DSNT ALQDS RAB13 TSB0158E16 SLP148 P0001 60001 T02330217 53021
KCRS 290228Z AUTO 04006KT 10SM -RA BKN048 BKN090 24/21 A2998 RMK AO2 LTG DSNT ALQDS RAB13 TSB0158E16 P0000 T02390211
KCRS 290216Z AUTO 06006KT 10SM VCTS -RA SCT022 BKN047 OVC055 24/21 A2998 RMK AO2 LTG DSNT E AND S AND W RAB13 TSB0158E16 P0000 T02390211
KCRS 290204Z AUTO 05003KT 10SM TS FEW015 BKN022 OVC047 24/21 A2998 RMK AO2 LTG DSNT S TSB0158 T02390211
KCRS 290153Z AUTO 02003KT 10SM SCT015 OVC022 24/21 A2997 RMK AO2 LTG DSNT SE SLP145 T02390211
KCRS 290132Z AUTO 03004KT 10SM SCT017 BKN026 OVC039 24/21 A2994 RMK AO2 PRESRR T02390211
KCRS 290112Z AUTO 02006KT 10SM SCT024 OVC035 24/21 A2992 RMK AO2 T02390206
KCRS 290053Z AUTO 02007KT 10SM OVC024 24/21 A2991 RMK AO2 SLP122 T02390206
KCRS 282353Z AUTO 01011KT 10SM BKN015 OVC022 24/21 A2992 RMK AO2 SLP127 60001 T02440206 10306 20244 55001
KCRS 282325Z AUTO 36010G19KT 10SM SCT015 BKN021 25/21 A2992 RMK AO2 PRESRR T02500211
KCRS 282253Z AUTO 35012G20KT 10SM FEW014 SCT110 26/22 A2987 RMK AO2 PK WND 34026/2238 LTG DSNT E AND SE RAE2154 TSB09E24 SLP110 P0000 T02610217
KCRS 282237Z AUTO 34015G25KT 10SM FEW014 SCT050 26/22 A2989 RMK AO2 LTG DSNT E AND SE RAE2154 TSB09E24 P0000 T02610217
KCRS 282230Z AUTO 34013KT 10SM VCTS FEW035 SCT050 27/22 A2989 RMK AO2 LTG DSNT E AND SE RAE2154 TSB09E24 P0000 T02670222
KCRS 282215Z AUTO 36012KT 10SM TS BKN038 OVC050 26/22 A2990 RMK AO2 LTG DSNT E-S RAE2154 TSB09 P0000 T02610217
KCRS 282153Z AUTO 36013G18KT 10SM VCTS -RA SCT027 BKN038 OVC049 27/23 A2990 RMK AO2 LTG DSNT E-S RAB45 TSE39 SLP121 P0000 T02670228
KCRS 282145Z AUTO 35011KT 10SM VCTS -RA SCT027 BKN034 OVC042 27/23 A2991 RMK AO2 LTG DSNT NE-S RAB45 TSE39 P0000 T02670228
KCRS 282053Z AUTO 36008KT 10SM TS BKN030 BKN035 OVC043 28/24 A2992 RMK AO2 LTG DSNT N-SE RAE1955B16E47 TSB42 SLP127 P0001 60001 T02780239 58002
KCRS 282048Z AUTO 36008KT 10SM TS SCT030 BKN036 OVC045 28/24 A2993 RMK AO2 LTG DSNT N AND SE RAE1955B16E47 TSB42 P0001
KCRS 281953Z AUTO 34005KT 10SM -RA BKN034 OVC046 29/24 A2993 RMK AO2 RAB46 SLP129 P0000 T02890239
KCRS 281935Z AUTO 04004KT 10SM SCT028 OVC037 29/23 A2993 RMK AO2 T02890233
KCRS 281923Z AUTO 05005KT 10SM BKN028 OVC037 28/23 A2993 RMK AO2 T02830233
KCRS 281903Z AUTO 08005KT 10SM SCT025 BKN030 OVC037 29/24 A2993 RMK AO2 T02890239
KCRS 281853Z AUTO 09006KT 10SM BKN024 OVC037 29/23 A2993 RMK AO2 SLP128 T02890233
KCRS 281753Z AUTO 14010KT 10SM OVC035 28/22 A2994 RMK AO2 SLP132 T02830222 10283 20250 50002
KCRS 281653Z AUTO 14011KT 10SM OVC031 26/22 A2995 RMK AO2 SLP136 T02610217
KCRS 281614Z AUTO 13012KT 10SM FEW023 OVC032 26/22 A2995 RMK AO2 T02610217
KCRS 281602Z AUTO 13012KT 10SM SCT014 BKN023 OVC032 26/22 A2994 RMK AO2 T02610222
KCRS 281553Z AUTO 13012KT 10SM BKN014 BKN021 OVC030 26/22 A2995 RMK AO2 SLP135 T02610222
KCRS 281537Z AUTO 12008KT 10SM BKN013 OVC032 26/22 A2994 RMK AO2 T02560222
KCRS 281530Z AUTO 10006KT 10SM BKN015 OVC032 26/22 A2994 RMK AO2 T02560222
KCRS 281518Z AUTO 11015KT 10SM FEW015 OVC032 27/22 A2994 RMK AO2 T02670222
KCRS 281508Z AUTO 13011G15KT 10SM BKN015 BKN023 OVC030 27/23 A2993 RMK AO2 T02670233
KCRS 281453Z AUTO 14017G22KT 10SM FEW015 SCT023 OVC030 27/23 A2993 RMK AO2 SLP129 T02670228 55000
KCRS 281437Z AUTO 14010KT 10SM BKN025 OVC031 26/23 A2994 RMK AO2 T02610228
KCRS 281353Z AUTO 13014KT 10SM SCT035 BKN048 27/23 A2993 RMK AO2 SLP128 T02720228
KCRS 281338Z AUTO 14013G20KT 10SM SCT026 BKN036 BKN075 27/23 A2992 RMK AO2 T02670228
KCRS 281253Z AUTO 12010KT 10SM BKN024 OVC080 26/23 A2993 RMK AO2 SLP130 T02560228
KCRS 281251Z AUTO 11010KT 10SM BKN024 OVC080 26/23 A2993 RMK AO2
KCRS 281153Z AUTO 12004KT 10SM FEW023 BKN080 OVC100 25/23 A2992 RMK AO2 SLP124 T02500228 10272 20244 51039
KCRS 281145Z AUTO 13007KT 10SM FEW023 BKN080 OVC100 25/23 A2991 RMK AO2 T02500228
KCRS 281118Z AUTO VRB03KT 10SM SCT014 OVC022 26/23 A2991 RMK AO2 T02560228
KCRS 281053Z AUTO 01007KT 10SM OVC012 25/23 A2991 RMK AO2 PRESRR SLP124 T02500228
KCRS 281028Z AUTO 01008KT 10SM BKN014 25/23 A2986 RMK AO2 PRESRR T02500228
KCRS 281006Z AUTO 18008KT 10SM OVC015 24/23 A2982 RMK AO2 T02440228
KCRS 280953Z AUTO 18009KT 10SM OVC014 24/23 A2981 RMK AO2 SLP090 T02440228
KCRS 280922Z AUTO 18011KT 10SM OVC014 24/23 A2980 RMK AO2 T02440228
KCRS 280853Z AUTO 18011KT 10SM BKN015 25/23 A2980 RMK AO2 LTG DSNT NE SLP085 T02500228 55006
KCRS 280753Z AUTO 18009KT 10SM CLR 26/23 A2980 RMK AO2 SLP084 T02560228
KCRS 280653Z AUTO 18013G19KT 10SM CLR 26/22 A2981 RMK AO2 SLP088 T02610222
KCRS 280553Z AUTO 18012KT 10SM CLR 27/22 A2982 RMK AO2 SLP092 T02670217 10322 20267 403280256 51008
KCRS 280453Z AUTO 18012G19KT 10SM CLR 28/22 A2982 RMK AO2 SLP091 T02780217
KCRS 280353Z AUTO 19014G25KT 10SM CLR 29/22 A2980 RMK AO2 SLP083 T02890222
KCRS 280253Z AUTO 18014KT 10SM CLR 29/23 A2979 RMK AO2 SLP083 T02940233 55002
KCRS 280153Z AUTO 17010KT 9SM BKN048 29/24 A2979 RMK AO2 SLP082 T02940244
KCRS 280053Z AUTO 17011KT 8SM BKN050 31/24 A2980 RMK AO2 SLP084 T03110244
KCRS 272353Z AUTO 17009KT 7SM FEW050 32/24 A2980 RMK AO2 SLP085 T03220244 10328 20294 56013


Page loaded:  11:33 UTC  |   04:33 AM Pacific  |   05:33 AM Mountain  |   06:33 AM Central  |   07:33 AM Eastern

 

ADVISORIES

FORECASTS

FORECASTS

OBSERVATIONS

USER TOOLS

ABOUT US